sensor_id;sensor_type;location;lat;lon;timestamp;P1;durP1;ratioP1;P2;durP2;ratioP2
58366;SDS011;57745;42.524;12.052;2022-12-10T00:01:50;19.05;;;3.95;;
58366;SDS011;57745;42.524;12.052;2022-12-10T00:04:17;12.32;;;3.38;;
58366;SDS011;57745;42.524;12.052;2022-12-10T00:06:43;12.15;;;3.55;;
58366;SDS011;57745;42.524;12.052;2022-12-10T00:09:12;17.40;;;3.60;;
58366;SDS011;57745;42.524;12.052;2022-12-10T00:11:39;15.57;;;2.80;;
58366;SDS011;57745;42.524;12.052;2022-12-10T00:14:06;15.43;;;2.78;;
58366;SDS011;57745;42.524;12.052;2022-12-10T00:16:32;17.98;;;3.40;;
58366;SDS011;57745;42.524;12.052;2022-12-10T00:19:01;14.30;;;3.10;;
58366;SDS011;57745;42.524;12.052;2022-12-10T00:21:28;17.27;;;3.50;;
58366;SDS011;57745;42.524;12.052;2022-12-10T00:23:55;14.68;;;3.50;;
58366;SDS011;57745;42.524;12.052;2022-12-10T00:26:28;17.77;;;3.25;;
58366;SDS011;57745;42.524;12.052;2022-12-10T00:28:55;20.17;;;3.42;;
58366;SDS011;57745;42.524;12.052;2022-12-10T00:31:25;19.88;;;3.47;;
58366;SDS011;57745;42.524;12.052;2022-12-10T00:34:02;22.30;;;2.83;;
58366;SDS011;57745;42.524;12.052;2022-12-10T00:36:31;13.95;;;2.97;;
58366;SDS011;57745;42.524;12.052;2022-12-10T00:39:02;16.40;;;3.00;;
58366;SDS011;57745;42.524;12.052;2022-12-10T00:41:28;10.63;;;2.60;;
58366;SDS011;57745;42.524;12.052;2022-12-10T00:43:54;16.85;;;3.15;;
58366;SDS011;57745;42.524;12.052;2022-12-10T00:46:20;15.50;;;3.85;;
58366;SDS011;57745;42.524;12.052;2022-12-10T00:48:45;18.27;;;3.00;;
58366;SDS011;57745;42.524;12.052;2022-12-10T00:51:21;18.50;;;2.97;;
58366;SDS011;57745;42.524;12.052;2022-12-10T00:53:48;19.02;;;3.55;;
58366;SDS011;57745;42.524;12.052;2022-12-10T00:56:16;15.43;;;3.33;;
58366;SDS011;57745;42.524;12.052;2022-12-10T00:58:43;14.27;;;2.83;;
58366;SDS011;57745;42.524;12.052;2022-12-10T01:01:26;12.15;;;3.15;;
58366;SDS011;57745;42.524;12.052;2022-12-10T01:03:57;14.45;;;2.28;;
58366;SDS011;57745;42.524;12.052;2022-12-10T01:08:55;16.30;;;2.60;;
58366;SDS011;57745;42.524;12.052;2022-12-10T01:11:23;12.98;;;3.58;;
58366;SDS011;57745;42.524;12.052;2022-12-10T01:13:51;13.35;;;2.92;;
58366;SDS011;57745;42.524;12.052;2022-12-10T01:16:18;18.08;;;3.15;;
58366;SDS011;57745;42.524;12.052;2022-12-10T01:18:45;15.77;;;3.13;;
58366;SDS011;57745;42.524;12.052;2022-12-10T01:21:13;17.48;;;3.28;;
58366;SDS011;57745;42.524;12.052;2022-12-10T01:23:41;16.88;;;2.60;;
58366;SDS011;57745;42.524;12.052;2022-12-10T01:26:11;12.90;;;3.03;;
58366;SDS011;57745;42.524;12.052;2022-12-10T01:28:40;16.13;;;2.97;;
58366;SDS011;57745;42.524;12.052;2022-12-10T01:31:08;18.90;;;3.03;;
58366;SDS011;57745;42.524;12.052;2022-12-10T01:33:35;17.42;;;2.42;;
58366;SDS011;57745;42.524;12.052;2022-12-10T01:36:06;16.88;;;2.67;;
58366;SDS011;57745;42.524;12.052;2022-12-10T01:38:33;13.48;;;3.10;;
58366;SDS011;57745;42.524;12.052;2022-12-10T01:40:59;11.65;;;2.70;;
58366;SDS011;57745;42.524;12.052;2022-12-10T01:43:26;21.48;;;3.97;;
58366;SDS011;57745;42.524;12.052;2022-12-10T01:45:52;15.30;;;2.88;;
58366;SDS011;57745;42.524;12.052;2022-12-10T01:48:18;13.13;;;2.97;;
58366;SDS011;57745;42.524;12.052;2022-12-10T01:50:44;10.27;;;3.00;;
58366;SDS011;57745;42.524;12.052;2022-12-10T01:53:11;11.98;;;3.00;;
58366;SDS011;57745;42.524;12.052;2022-12-10T01:58:06;14.25;;;2.67;;
58366;SDS011;57745;42.524;12.052;2022-12-10T02:00:32;14.00;;;2.95;;
58366;SDS011;57745;42.524;12.052;2022-12-10T02:03:08;15.02;;;3.45;;
58366;SDS011;57745;42.524;12.052;2022-12-10T02:05:44;9.38;;;2.13;;
58366;SDS011;57745;42.524;12.052;2022-12-10T02:08:33;15.73;;;3.35;;
58366;SDS011;57745;42.524;12.052;2022-12-10T02:13:40;16.75;;;3.30;;
58366;SDS011;57745;42.524;12.052;2022-12-10T02:16:18;16.58;;;3.00;;
58366;SDS011;57745;42.524;12.052;2022-12-10T02:18:51;14.43;;;3.08;;
58366;SDS011;57745;42.524;12.052;2022-12-10T02:21:55;15.90;;;2.83;;
58366;SDS011;57745;42.524;12.052;2022-12-10T02:24:18;22.73;;;4.18;;
58366;SDS011;57745;42.524;12.052;2022-12-10T02:29:21;20.42;;;3.13;;
58366;SDS011;57745;42.524;12.052;2022-12-10T02:32:00;23.52;;;4.32;;
58366;SDS011;57745;42.524;12.052;2022-12-10T02:34:30;22.88;;;4.18;;
58366;SDS011;57745;42.524;12.052;2022-12-10T02:37:01;18.70;;;3.60;;
58366;SDS011;57745;42.524;12.052;2022-12-10T02:39:44;28.60;;;4.75;;
58366;SDS011;57745;42.524;12.052;2022-12-10T02:42:13;28.10;;;4.60;;
58366;SDS011;57745;42.524;12.052;2022-12-10T02:44:42;24.02;;;4.95;;
58366;SDS011;57745;42.524;12.052;2022-12-10T02:47:10;24.85;;;4.57;;
58366;SDS011;57745;42.524;12.052;2022-12-10T02:49:36;37.67;;;5.40;;
58366;SDS011;57745;42.524;12.052;2022-12-10T02:52:06;22.98;;;4.30;;
58366;SDS011;57745;42.524;12.052;2022-12-10T02:57:08;36.58;;;5.68;;
58366;SDS011;57745;42.524;12.052;2022-12-10T02:59:57;29.90;;;5.43;;
58366;SDS011;57745;42.524;12.052;2022-12-10T03:10:28;30.92;;;6.20;;
58366;SDS011;57745;42.524;12.052;2022-12-10T03:13:04;39.70;;;4.97;;
58366;SDS011;57745;42.524;12.052;2022-12-10T03:15:34;31.73;;;5.75;;
58366;SDS011;57745;42.524;12.052;2022-12-10T03:18:03;36.70;;;4.70;;
58366;SDS011;57745;42.524;12.052;2022-12-10T03:20:36;32.38;;;4.22;;
58366;SDS011;57745;42.524;12.052;2022-12-10T03:23:03;39.70;;;4.43;;
58366;SDS011;57745;42.524;12.052;2022-12-10T03:25:33;33.10;;;6.20;;
58366;SDS011;57745;42.524;12.052;2022-12-10T03:28:01;25.80;;;5.05;;
58366;SDS011;57745;42.524;12.052;2022-12-10T03:30:26;23.85;;;4.30;;
58366;SDS011;57745;42.524;12.052;2022-12-10T03:32:55;24.42;;;4.15;;
58366;SDS011;57745;42.524;12.052;2022-12-10T03:35:21;28.33;;;4.72;;
58366;SDS011;57745;42.524;12.052;2022-12-10T03:37:48;23.95;;;3.90;;
58366;SDS011;57745;42.524;12.052;2022-12-10T03:40:15;28.75;;;4.50;;
58366;SDS011;57745;42.524;12.052;2022-12-10T03:42:43;24.20;;;4.43;;
58366;SDS011;57745;42.524;12.052;2022-12-10T03:45:08;22.60;;;5.20;;
58366;SDS011;57745;42.524;12.052;2022-12-10T03:47:35;28.98;;;5.03;;
58366;SDS011;57745;42.524;12.052;2022-12-10T03:50:00;24.52;;;4.38;;
58366;SDS011;57745;42.524;12.052;2022-12-10T03:52:26;18.95;;;3.28;;
58366;SDS011;57745;42.524;12.052;2022-12-10T03:54:51;22.88;;;3.78;;
58366;SDS011;57745;42.524;12.052;2022-12-10T03:57:17;22.70;;;3.50;;
58366;SDS011;57745;42.524;12.052;2022-12-10T03:59:43;15.23;;;3.88;;
58366;SDS011;57745;42.524;12.052;2022-12-10T04:02:08;22.77;;;3.97;;
58366;SDS011;57745;42.524;12.052;2022-12-10T04:04:33;19.30;;;3.50;;
58366;SDS011;57745;42.524;12.052;2022-12-10T04:06:59;17.35;;;3.92;;
58366;SDS011;57745;42.524;12.052;2022-12-10T04:09:24;22.10;;;3.42;;
58366;SDS011;57745;42.524;12.052;2022-12-10T04:11:50;17.52;;;3.92;;
58366;SDS011;57745;42.524;12.052;2022-12-10T04:14:20;16.48;;;3.75;;
58366;SDS011;57745;42.524;12.052;2022-12-10T04:17:04;21.88;;;4.13;;
58366;SDS011;57745;42.524;12.052;2022-12-10T04:19:30;16.85;;;3.60;;
58366;SDS011;57745;42.524;12.052;2022-12-10T04:21:55;21.05;;;4.50;;
58366;SDS011;57745;42.524;12.052;2022-12-10T04:24:39;16.33;;;3.80;;
58366;SDS011;57745;42.524;12.052;2022-12-10T04:27:24;15.38;;;2.85;;
58366;SDS011;57745;42.524;12.052;2022-12-10T04:29:55;23.23;;;3.17;;
58366;SDS011;57745;42.524;12.052;2022-12-10T04:32:22;23.30;;;3.67;;
58366;SDS011;57745;42.524;12.052;2022-12-10T04:34:49;24.40;;;4.00;;
58366;SDS011;57745;42.524;12.052;2022-12-10T04:37:15;21.00;;;4.65;;
58366;SDS011;57745;42.524;12.052;2022-12-10T04:39:41;21.15;;;3.42;;
58366;SDS011;57745;42.524;12.052;2022-12-10T04:42:07;16.98;;;3.35;;
58366;SDS011;57745;42.524;12.052;2022-12-10T04:44:33;15.73;;;2.65;;
58366;SDS011;57745;42.524;12.052;2022-12-10T04:46:59;10.05;;;2.30;;
58366;SDS011;57745;42.524;12.052;2022-12-10T04:49:25;13.63;;;2.97;;
58366;SDS011;57745;42.524;12.052;2022-12-10T04:51:51;10.90;;;2.03;;
58366;SDS011;57745;42.524;12.052;2022-12-10T04:54:17;10.65;;;2.08;;
58366;SDS011;57745;42.524;12.052;2022-12-10T04:56:44;12.98;;;2.80;;
58366;SDS011;57745;42.524;12.052;2022-12-10T04:59:10;13.60;;;2.20;;
58366;SDS011;57745;42.524;12.052;2022-12-10T05:01:36;9.80;;;2.22;;
58366;SDS011;57745;42.524;12.052;2022-12-10T05:04:02;11.77;;;2.45;;
58366;SDS011;57745;42.524;12.052;2022-12-10T05:06:29;10.90;;;1.88;;
58366;SDS011;57745;42.524;12.052;2022-12-10T05:08:56;15.38;;;2.40;;
58366;SDS011;57745;42.524;12.052;2022-12-10T05:11:22;12.25;;;1.88;;
58366;SDS011;57745;42.524;12.052;2022-12-10T05:13:50;7.90;;;1.73;;
58366;SDS011;57745;42.524;12.052;2022-12-10T05:16:17;11.10;;;1.73;;
58366;SDS011;57745;42.524;12.052;2022-12-10T05:18:44;11.32;;;2.38;;
58366;SDS011;57745;42.524;12.052;2022-12-10T05:21:11;12.70;;;2.55;;
58366;SDS011;57745;42.524;12.052;2022-12-10T05:23:39;14.57;;;2.17;;
58366;SDS011;57745;42.524;12.052;2022-12-10T05:28:37;12.70;;;2.00;;
58366;SDS011;57745;42.524;12.052;2022-12-10T05:31:28;10.15;;;2.17;;
58366;SDS011;57745;42.524;12.052;2022-12-10T05:33:55;12.95;;;2.03;;
58366;SDS011;57745;42.524;12.052;2022-12-10T05:36:22;7.82;;;2.58;;
58366;SDS011;57745;42.524;12.052;2022-12-10T05:38:49;11.02;;;3.15;;
58366;SDS011;57745;42.524;12.052;2022-12-10T05:41:17;13.13;;;2.28;;
58366;SDS011;57745;42.524;12.052;2022-12-10T05:43:44;8.40;;;1.75;;
58366;SDS011;57745;42.524;12.052;2022-12-10T05:46:11;12.00;;;2.63;;
58366;SDS011;57745;42.524;12.052;2022-12-10T05:48:39;12.68;;;2.58;;
58366;SDS011;57745;42.524;12.052;2022-12-10T05:51:05;13.77;;;2.47;;
58366;SDS011;57745;42.524;12.052;2022-12-10T05:53:36;12.85;;;2.85;;
58366;SDS011;57745;42.524;12.052;2022-12-10T05:56:03;8.75;;;2.08;;
58366;SDS011;57745;42.524;12.052;2022-12-10T05:58:30;15.18;;;2.40;;
58366;SDS011;57745;42.524;12.052;2022-12-10T06:00:56;15.05;;;3.05;;
58366;SDS011;57745;42.524;12.052;2022-12-10T06:03:22;12.40;;;2.30;;
58366;SDS011;57745;42.524;12.052;2022-12-10T06:05:48;10.48;;;1.98;;
58366;SDS011;57745;42.524;12.052;2022-12-10T06:08:13;10.65;;;2.05;;
58366;SDS011;57745;42.524;12.052;2022-12-10T06:10:39;15.57;;;2.25;;
58366;SDS011;57745;42.524;12.052;2022-12-10T06:13:04;12.80;;;1.88;;
58366;SDS011;57745;42.524;12.052;2022-12-10T06:15:30;10.18;;;2.42;;
58366;SDS011;57745;42.524;12.052;2022-12-10T06:17:57;10.68;;;2.13;;
58366;SDS011;57745;42.524;12.052;2022-12-10T06:20:24;14.05;;;3.35;;
58366;SDS011;57745;42.524;12.052;2022-12-10T06:22:50;11.25;;;1.98;;
58366;SDS011;57745;42.524;12.052;2022-12-10T06:25:16;8.77;;;2.50;;
58366;SDS011;57745;42.524;12.052;2022-12-10T06:27:43;10.38;;;2.10;;
58366;SDS011;57745;42.524;12.052;2022-12-10T06:30:08;11.52;;;2.63;;
58366;SDS011;57745;42.524;12.052;2022-12-10T06:32:34;12.85;;;2.85;;
58366;SDS011;57745;42.524;12.052;2022-12-10T06:35:00;9.45;;;1.95;;
58366;SDS011;57745;42.524;12.052;2022-12-10T06:37:26;10.73;;;1.80;;
58366;SDS011;57745;42.524;12.052;2022-12-10T06:39:51;7.65;;;1.70;;
58366;SDS011;57745;42.524;12.052;2022-12-10T06:42:18;4.03;;;1.20;;
58366;SDS011;57745;42.524;12.052;2022-12-10T06:44:46;8.63;;;1.67;;
58366;SDS011;57745;42.524;12.052;2022-12-10T06:47:12;11.15;;;1.60;;
58366;SDS011;57745;42.524;12.052;2022-12-10T06:49:38;6.47;;;1.40;;
58366;SDS011;57745;42.524;12.052;2022-12-10T06:52:04;5.75;;;1.00;;
58366;SDS011;57745;42.524;12.052;2022-12-10T06:54:30;9.25;;;1.92;;
58366;SDS011;57745;42.524;12.052;2022-12-10T06:56:56;5.05;;;1.05;;
58366;SDS011;57745;42.524;12.052;2022-12-10T06:59:22;7.65;;;2.05;;
58366;SDS011;57745;42.524;12.052;2022-12-10T07:01:48;5.85;;;1.50;;
58366;SDS011;57745;42.524;12.052;2022-12-10T07:04:13;4.40;;;1.45;;
58366;SDS011;57745;42.524;12.052;2022-12-10T07:06:39;5.68;;;1.20;;
58366;SDS011;57745;42.524;12.052;2022-12-10T07:09:04;6.07;;;1.10;;
58366;SDS011;57745;42.524;12.052;2022-12-10T07:11:30;4.85;;;1.10;;
58366;SDS011;57745;42.524;12.052;2022-12-10T07:13:57;8.77;;;1.30;;
58366;SDS011;57745;42.524;12.052;2022-12-10T07:16:27;10.93;;;1.90;;
58366;SDS011;57745;42.524;12.052;2022-12-10T07:18:54;5.78;;;1.10;;
58366;SDS011;57745;42.524;12.052;2022-12-10T07:23:55;5.65;;;1.10;;
58366;SDS011;57745;42.524;12.052;2022-12-10T07:26:27;4.20;;;0.75;;
58366;SDS011;57745;42.524;12.052;2022-12-10T07:28:54;4.53;;;0.82;;
58366;SDS011;57745;42.524;12.052;2022-12-10T07:31:20;4.70;;;1.15;;
58366;SDS011;57745;42.524;12.052;2022-12-10T07:33:47;3.13;;;0.98;;
58366;SDS011;57745;42.524;12.052;2022-12-10T07:36:12;5.45;;;1.17;;
58366;SDS011;57745;42.524;12.052;2022-12-10T07:38:39;3.75;;;1.00;;
58366;SDS011;57745;42.524;12.052;2022-12-10T07:41:09;3.90;;;1.25;;
58366;SDS011;57745;42.524;12.052;2022-12-10T07:43:37;3.63;;;0.80;;
58366;SDS011;57745;42.524;12.052;2022-12-10T07:46:08;5.50;;;0.85;;
58366;SDS011;57745;42.524;12.052;2022-12-10T07:48:41;3.80;;;1.02;;
58366;SDS011;57745;42.524;12.052;2022-12-10T07:51:08;4.18;;;0.90;;
58366;SDS011;57745;42.524;12.052;2022-12-10T07:53:34;2.10;;;1.08;;
58366;SDS011;57745;42.524;12.052;2022-12-10T07:56:00;5.72;;;1.38;;
58366;SDS011;57745;42.524;12.052;2022-12-10T07:58:26;4.07;;;0.95;;
58366;SDS011;57745;42.524;12.052;2022-12-10T08:00:52;4.45;;;1.20;;
58366;SDS011;57745;42.524;12.052;2022-12-10T08:03:18;3.55;;;1.73;;
58366;SDS011;57745;42.524;12.052;2022-12-10T08:05:43;7.80;;;1.23;;
58366;SDS011;57745;42.524;12.052;2022-12-10T08:08:09;4.88;;;1.20;;
58366;SDS011;57745;42.524;12.052;2022-12-10T08:10:35;2.95;;;1.17;;
58366;SDS011;57745;42.524;12.052;2022-12-10T08:13:01;4.78;;;1.00;;
58366;SDS011;57745;42.524;12.052;2022-12-10T08:15:27;3.72;;;1.10;;
58366;SDS011;57745;42.524;12.052;2022-12-10T08:17:53;5.05;;;1.10;;
58366;SDS011;57745;42.524;12.052;2022-12-10T08:20:19;3.08;;;1.00;;
58366;SDS011;57745;42.524;12.052;2022-12-10T08:22:45;2.28;;;0.95;;
58366;SDS011;57745;42.524;12.052;2022-12-10T08:25:10;5.72;;;1.40;;
58366;SDS011;57745;42.524;12.052;2022-12-10T08:27:36;3.65;;;1.13;;
58366;SDS011;57745;42.524;12.052;2022-12-10T08:30:01;4.55;;;1.00;;
58366;SDS011;57745;42.524;12.052;2022-12-10T08:32:27;2.70;;;0.80;;
58366;SDS011;57745;42.524;12.052;2022-12-10T08:34:52;2.38;;;0.90;;
58366;SDS011;57745;42.524;12.052;2022-12-10T08:37:18;1.83;;;0.75;;
58366;SDS011;57745;42.524;12.052;2022-12-10T08:39:43;2.15;;;0.90;;
58366;SDS011;57745;42.524;12.052;2022-12-10T08:42:09;1.80;;;0.80;;
58366;SDS011;57745;42.524;12.052;2022-12-10T08:44:34;2.58;;;0.70;;
58366;SDS011;57745;42.524;12.052;2022-12-10T08:47:00;2.45;;;0.90;;
58366;SDS011;57745;42.524;12.052;2022-12-10T08:49:25;2.22;;;0.68;;
58366;SDS011;57745;42.524;12.052;2022-12-10T08:51:51;3.63;;;0.80;;
58366;SDS011;57745;42.524;12.052;2022-12-10T08:54:16;2.67;;;0.95;;
58366;SDS011;57745;42.524;12.052;2022-12-10T08:56:42;2.28;;;0.90;;
58366;SDS011;57745;42.524;12.052;2022-12-10T08:59:07;3.20;;;0.80;;
58366;SDS011;57745;42.524;12.052;2022-12-10T09:01:32;1.88;;;0.60;;
58366;SDS011;57745;42.524;12.052;2022-12-10T09:03:58;2.78;;;0.60;;
58366;SDS011;57745;42.524;12.052;2022-12-10T09:06:25;0.85;;;0.50;;
58366;SDS011;57745;42.524;12.052;2022-12-10T09:08:51;1.25;;;0.70;;
58366;SDS011;57745;42.524;12.052;2022-12-10T09:11:18;1.85;;;0.82;;
58366;SDS011;57745;42.524;12.052;2022-12-10T09:13:52;1.48;;;0.50;;
58366;SDS011;57745;42.524;12.052;2022-12-10T09:16:18;3.63;;;1.65;;
58366;SDS011;57745;42.524;12.052;2022-12-10T09:18:43;1.90;;;0.60;;
58366;SDS011;57745;42.524;12.052;2022-12-10T09:21:13;2.88;;;0.70;;
58366;SDS011;57745;42.524;12.052;2022-12-10T09:23:41;2.60;;;0.60;;
58366;SDS011;57745;42.524;12.052;2022-12-10T09:26:08;3.80;;;0.77;;
58366;SDS011;57745;42.524;12.052;2022-12-10T09:28:35;0.93;;;0.57;;
58366;SDS011;57745;42.524;12.052;2022-12-10T09:31:01;0.68;;;0.50;;
58366;SDS011;57745;42.524;12.052;2022-12-10T09:33:29;1.98;;;0.70;;
58366;SDS011;57745;42.524;12.052;2022-12-10T09:35:55;1.80;;;0.60;;
58366;SDS011;57745;42.524;12.052;2022-12-10T09:38:21;2.15;;;0.80;;
58366;SDS011;57745;42.524;12.052;2022-12-10T09:43:48;1.67;;;0.50;;
58366;SDS011;57745;42.524;12.052;2022-12-10T09:46:20;1.13;;;0.50;;
58366;SDS011;57745;42.524;12.052;2022-12-10T09:51:38;2.15;;;0.70;;
58366;SDS011;57745;42.524;12.052;2022-12-10T09:54:11;0.93;;;0.57;;
58366;SDS011;57745;42.524;12.052;2022-12-10T09:56:44;1.50;;;0.65;;
58366;SDS011;57745;42.524;12.052;2022-12-10T09:59:20;1.80;;;0.70;;
58366;SDS011;57745;42.524;12.052;2022-12-10T10:04:45;2.45;;;0.70;;
58366;SDS011;57745;42.524;12.052;2022-12-10T10:07:23;2.15;;;0.75;;
58366;SDS011;57745;42.524;12.052;2022-12-10T10:09:53;2.25;;;0.80;;
58366;SDS011;57745;42.524;12.052;2022-12-10T10:12:23;2.10;;;0.60;;
58366;SDS011;57745;42.524;12.052;2022-12-10T10:14:48;1.75;;;0.77;;
58366;SDS011;57745;42.524;12.052;2022-12-10T10:17:27;2.38;;;0.98;;
58366;SDS011;57745;42.524;12.052;2022-12-10T10:19:58;4.22;;;2.20;;
58366;SDS011;57745;42.524;12.052;2022-12-10T10:22:24;7.07;;;4.13;;
58366;SDS011;57745;42.524;12.052;2022-12-10T10:24:51;11.00;;;5.65;;
58366;SDS011;57745;42.524;12.052;2022-12-10T10:27:17;6.43;;;3.50;;
58366;SDS011;57745;42.524;12.052;2022-12-10T10:29:45;6.63;;;3.58;;
58366;SDS011;57745;42.524;12.052;2022-12-10T10:32:15;7.50;;;3.90;;
58366;SDS011;57745;42.524;12.052;2022-12-10T10:34:42;6.30;;;3.42;;
58366;SDS011;57745;42.524;12.052;2022-12-10T10:37:13;6.43;;;3.20;;
58366;SDS011;57745;42.524;12.052;2022-12-10T10:39:48;5.13;;;3.03;;
58366;SDS011;57745;42.524;12.052;2022-12-10T10:42:58;5.07;;;3.03;;
58366;SDS011;57745;42.524;12.052;2022-12-10T10:50:30;6.10;;;2.70;;
58366;SDS011;57745;42.524;12.052;2022-12-10T10:53:18;4.68;;;2.38;;
58366;SDS011;57745;42.524;12.052;2022-12-10T10:55:50;4.25;;;2.28;;
58366;SDS011;57745;42.524;12.052;2022-12-10T10:58:19;4.47;;;2.83;;
58366;SDS011;57745;42.524;12.052;2022-12-10T11:01:01;4.25;;;2.50;;
58366;SDS011;57745;42.524;12.052;2022-12-10T11:03:30;6.32;;;2.88;;
58366;SDS011;57745;42.524;12.052;2022-12-10T11:05:59;4.25;;;3.15;;
58366;SDS011;57745;42.524;12.052;2022-12-10T11:08:26;5.43;;;2.08;;
58366;SDS011;57745;42.524;12.052;2022-12-10T11:11:01;3.50;;;2.17;;
58366;SDS011;57745;42.524;12.052;2022-12-10T11:13:32;4.32;;;2.92;;
58366;SDS011;57745;42.524;12.052;2022-12-10T11:16:20;4.50;;;2.88;;
58366;SDS011;57745;42.524;12.052;2022-12-10T11:18:52;4.55;;;3.00;;
58366;SDS011;57745;42.524;12.052;2022-12-10T11:21:21;3.92;;;2.55;;
58366;SDS011;57745;42.524;12.052;2022-12-10T11:23:53;4.90;;;2.47;;
58366;SDS011;57745;42.524;12.052;2022-12-10T11:48:49;2.80;;;1.60;;
58366;SDS011;57745;42.524;12.052;2022-12-10T11:56:37;2.40;;;1.60;;
58366;SDS011;57745;42.524;12.052;2022-12-10T12:12:38;3.38;;;2.00;;
58366;SDS011;57745;42.524;12.052;2022-12-10T12:15:34;2.75;;;2.15;;
58366;SDS011;57745;42.524;12.052;2022-12-10T12:18:06;3.38;;;2.25;;
58366;SDS011;57745;42.524;12.052;2022-12-10T12:20:58;2.53;;;1.98;;
58366;SDS011;57745;42.524;12.052;2022-12-10T12:23:36;5.22;;;2.97;;
58366;SDS011;57745;42.524;12.052;2022-12-10T12:26:26;3.95;;;3.00;;
58366;SDS011;57745;42.524;12.052;2022-12-10T12:31:29;5.53;;;3.80;;
58366;SDS011;57745;42.524;12.052;2022-12-10T12:34:00;9.63;;;7.57;;
58366;SDS011;57745;42.524;12.052;2022-12-10T12:36:30;6.57;;;5.78;;
58366;SDS011;57745;42.524;12.052;2022-12-10T12:41:48;6.50;;;5.80;;
58366;SDS011;57745;42.524;12.052;2022-12-10T12:44:28;7.05;;;5.65;;
58366;SDS011;57745;42.524;12.052;2022-12-10T12:47:10;8.00;;;5.75;;
58366;SDS011;57745;42.524;12.052;2022-12-10T12:49:39;7.47;;;5.97;;
58366;SDS011;57745;42.524;12.052;2022-12-10T12:55:01;6.72;;;5.32;;
58366;SDS011;57745;42.524;12.052;2022-12-10T12:58:10;6.35;;;4.53;;
58366;SDS011;57745;42.524;12.052;2022-12-10T13:01:06;6.38;;;4.63;;
58366;SDS011;57745;42.524;12.052;2022-12-10T13:03:42;5.65;;;4.28;;
58366;SDS011;57745;42.524;12.052;2022-12-10T13:06:16;6.70;;;4.60;;
58366;SDS011;57745;42.524;12.052;2022-12-10T13:08:52;7.43;;;5.30;;
58366;SDS011;57745;42.524;12.052;2022-12-10T13:14:29;6.30;;;4.90;;
58366;SDS011;57745;42.524;12.052;2022-12-10T13:17:31;6.72;;;5.25;;
58366;SDS011;57745;42.524;12.052;2022-12-10T13:22:57;6.50;;;4.53;;
58366;SDS011;57745;42.524;12.052;2022-12-10T13:25:42;7.00;;;5.20;;
58366;SDS011;57745;42.524;12.052;2022-12-10T13:36:33;8.27;;;5.82;;
58366;SDS011;57745;42.524;12.052;2022-12-10T13:41:30;8.05;;;5.72;;
58366;SDS011;57745;42.524;12.052;2022-12-10T13:44:50;7.30;;;5.22;;
58366;SDS011;57745;42.524;12.052;2022-12-10T13:49:57;8.00;;;4.72;;
58366;SDS011;57745;42.524;12.052;2022-12-10T13:52:25;10.18;;;6.65;;
58366;SDS011;57745;42.524;12.052;2022-12-10T14:00:19;7.35;;;6.13;;
58366;SDS011;57745;42.524;12.052;2022-12-10T14:08:26;7.75;;;5.82;;
58366;SDS011;57745;42.524;12.052;2022-12-10T14:10:56;7.13;;;5.70;;
58366;SDS011;57745;42.524;12.052;2022-12-10T14:13:41;7.00;;;5.43;;
58366;SDS011;57745;42.524;12.052;2022-12-10T14:16:10;7.07;;;5.43;;
58366;SDS011;57745;42.524;12.052;2022-12-10T14:18:38;7.35;;;5.28;;
58366;SDS011;57745;42.524;12.052;2022-12-10T14:21:08;6.72;;;4.93;;
58366;SDS011;57745;42.524;12.052;2022-12-10T14:23:39;5.22;;;4.20;;
58366;SDS011;57745;42.524;12.052;2022-12-10T14:26:14;6.03;;;4.80;;
58366;SDS011;57745;42.524;12.052;2022-12-10T14:28:43;6.18;;;4.75;;
58366;SDS011;57745;42.524;12.052;2022-12-10T14:31:17;5.57;;;4.10;;
58366;SDS011;57745;42.524;12.052;2022-12-10T14:33:46;5.88;;;4.50;;
58366;SDS011;57745;42.524;12.052;2022-12-10T14:36:17;5.72;;;4.35;;
58366;SDS011;57745;42.524;12.052;2022-12-10T14:38:49;6.90;;;4.50;;
58366;SDS011;57745;42.524;12.052;2022-12-10T14:41:17;6.90;;;4.30;;
58366;SDS011;57745;42.524;12.052;2022-12-10T14:43:45;5.10;;;3.85;;
58366;SDS011;57745;42.524;12.052;2022-12-10T14:46:13;5.38;;;3.72;;
58366;SDS011;57745;42.524;12.052;2022-12-10T14:48:41;5.47;;;3.80;;
58366;SDS011;57745;42.524;12.052;2022-12-10T14:51:15;5.07;;;3.55;;
58366;SDS011;57745;42.524;12.052;2022-12-10T14:53:44;5.13;;;3.60;;
58366;SDS011;57745;42.524;12.052;2022-12-10T14:56:13;5.85;;;3.70;;
58366;SDS011;57745;42.524;12.052;2022-12-10T14:58:46;4.78;;;3.63;;
58366;SDS011;57745;42.524;12.052;2022-12-10T15:01:36;4.35;;;3.00;;
58366;SDS011;57745;42.524;12.052;2022-12-10T15:04:06;4.20;;;2.88;;
58366;SDS011;57745;42.524;12.052;2022-12-10T15:06:38;5.13;;;3.22;;
58366;SDS011;57745;42.524;12.052;2022-12-10T15:09:04;5.30;;;3.22;;
58366;SDS011;57745;42.524;12.052;2022-12-10T15:11:37;4.20;;;2.90;;
58366;SDS011;57745;42.524;12.052;2022-12-10T15:14:04;4.95;;;3.15;;
58366;SDS011;57745;42.524;12.052;2022-12-10T15:16:31;3.22;;;2.42;;
58366;SDS011;57745;42.524;12.052;2022-12-10T15:19:16;3.13;;;2.30;;
58366;SDS011;57745;42.524;12.052;2022-12-10T15:21:45;3.38;;;2.40;;
58366;SDS011;57745;42.524;12.052;2022-12-10T15:24:25;3.50;;;2.53;;
58366;SDS011;57745;42.524;12.052;2022-12-10T15:27:01;2.45;;;2.03;;
58366;SDS011;57745;42.524;12.052;2022-12-10T15:29:31;3.67;;;2.70;;
58366;SDS011;57745;42.524;12.052;2022-12-10T15:32:00;4.32;;;2.53;;
58366;SDS011;57745;42.524;12.052;2022-12-10T15:34:29;3.13;;;2.30;;
58366;SDS011;57745;42.524;12.052;2022-12-10T15:37:02;2.72;;;2.08;;
58366;SDS011;57745;42.524;12.052;2022-12-10T15:39:30;3.28;;;2.13;;
58366;SDS011;57745;42.524;12.052;2022-12-10T15:42:06;3.08;;;2.10;;
58366;SDS011;57745;42.524;12.052;2022-12-10T15:44:36;3.10;;;1.90;;
58366;SDS011;57745;42.524;12.052;2022-12-10T15:47:16;3.00;;;1.90;;
58366;SDS011;57745;42.524;12.052;2022-12-10T15:49:44;2.78;;;2.08;;
58366;SDS011;57745;42.524;12.052;2022-12-10T15:52:18;3.08;;;2.22;;
58366;SDS011;57745;42.524;12.052;2022-12-10T15:54:48;3.20;;;2.08;;
58366;SDS011;57745;42.524;12.052;2022-12-10T15:57:18;2.80;;;2.00;;
58366;SDS011;57745;42.524;12.052;2022-12-10T15:59:49;3.08;;;1.95;;
58366;SDS011;57745;42.524;12.052;2022-12-10T16:05:10;2.97;;;1.85;;
58366;SDS011;57745;42.524;12.052;2022-12-10T16:07:37;2.92;;;1.60;;
58366;SDS011;57745;42.524;12.052;2022-12-10T16:10:03;2.20;;;1.60;;
58366;SDS011;57745;42.524;12.052;2022-12-10T16:12:29;3.38;;;1.90;;
58366;SDS011;57745;42.524;12.052;2022-12-10T16:14:56;2.20;;;1.60;;
58366;SDS011;57745;42.524;12.052;2022-12-10T16:17:25;2.40;;;1.80;;
58366;SDS011;57745;42.524;12.052;2022-12-10T16:19:52;2.55;;;1.63;;
58366;SDS011;57745;42.524;12.052;2022-12-10T16:22:21;1.95;;;1.50;;
58366;SDS011;57745;42.524;12.052;2022-12-10T16:24:46;2.33;;;1.50;;
58366;SDS011;57745;42.524;12.052;2022-12-10T16:27:12;2.42;;;1.50;;
58366;SDS011;57745;42.524;12.052;2022-12-10T16:29:39;3.10;;;1.45;;
58366;SDS011;57745;42.524;12.052;2022-12-10T16:32:07;1.73;;;1.42;;
58366;SDS011;57745;42.524;12.052;2022-12-10T16:34:34;1.98;;;1.30;;
58366;SDS011;57745;42.524;12.052;2022-12-10T16:37:00;1.60;;;1.20;;
58366;SDS011;57745;42.524;12.052;2022-12-10T16:39:25;2.78;;;1.80;;
58366;SDS011;57745;42.524;12.052;2022-12-10T16:41:51;2.97;;;1.60;;
58366;SDS011;57745;42.524;12.052;2022-12-10T16:44:18;2.08;;;1.55;;
58366;SDS011;57745;42.524;12.052;2022-12-10T16:46:43;1.95;;;1.58;;